sensor_id;sensor_type;location;lat;lon;timestamp;temperature;humidity
15131;DHT22;7666;50.920;4.628;2022-12-07T00:00:40;5.80;99.90
15131;DHT22;7666;50.920;4.628;2022-12-07T00:03:26;5.70;99.90
15131;DHT22;7666;50.920;4.628;2022-12-07T00:06:14;5.70;99.90
15131;DHT22;7666;50.920;4.628;2022-12-07T00:09:00;5.70;99.90
15131;DHT22;7666;50.920;4.628;2022-12-07T00:11:49;5.60;99.90
15131;DHT22;7666;50.920;4.628;2022-12-07T00:14:35;5.60;99.90
15131;DHT22;7666;50.920;4.628;2022-12-07T00:17:21;5.60;99.90
15131;DHT22;7666;50.920;4.628;2022-12-07T00:20:07;5.60;99.90
15131;DHT22;7666;50.920;4.628;2022-12-07T00:22:53;5.50;99.90
15131;DHT22;7666;50.920;4.628;2022-12-07T00:25:39;5.50;99.90
15131;DHT22;7666;50.920;4.628;2022-12-07T00:28:25;5.40;99.90
15131;DHT22;7666;50.920;4.628;2022-12-07T00:31:12;5.40;99.90
15131;DHT22;7666;50.920;4.628;2022-12-07T00:33:59;5.30;99.90
15131;DHT22;7666;50.920;4.628;2022-12-07T00:36:45;5.30;99.90
15131;DHT22;7666;50.920;4.628;2022-12-07T00:39:31;5.20;99.90
15131;DHT22;7666;50.920;4.628;2022-12-07T00:42:17;5.20;99.90
15131;DHT22;7666;50.920;4.628;2022-12-07T00:45:04;5.20;99.90
15131;DHT22;7666;50.920;4.628;2022-12-07T00:47:50;5.10;99.90
15131;DHT22;7666;50.920;4.628;2022-12-07T00:50:36;5.10;99.90
15131;DHT22;7666;50.920;4.628;2022-12-07T00:53:22;5.10;99.90
15131;DHT22;7666;50.920;4.628;2022-12-07T00:56:12;5.10;99.90
15131;DHT22;7666;50.920;4.628;2022-12-07T00:59:01;5.10;99.90
15131;DHT22;7666;50.920;4.628;2022-12-07T01:01:47;5.10;99.90
15131;DHT22;7666;50.920;4.628;2022-12-07T01:04:34;5.10;99.90
15131;DHT22;7666;50.920;4.628;2022-12-07T01:07:20;5.00;99.90
15131;DHT22;7666;50.920;4.628;2022-12-07T01:10:06;5.00;99.90
15131;DHT22;7666;50.920;4.628;2022-12-07T01:12:52;4.90;99.90
15131;DHT22;7666;50.920;4.628;2022-12-07T01:15:43;4.90;99.90
15131;DHT22;7666;50.920;4.628;2022-12-07T01:18:31;4.80;99.90
15131;DHT22;7666;50.920;4.628;2022-12-07T01:21:25;4.80;99.90
15131;DHT22;7666;50.920;4.628;2022-12-07T01:24:12;4.80;99.90
15131;DHT22;7666;50.920;4.628;2022-12-07T01:26:58;4.70;99.90
15131;DHT22;7666;50.920;4.628;2022-12-07T01:29:44;4.70;99.90
15131;DHT22;7666;50.920;4.628;2022-12-07T01:32:31;4.70;99.90
15131;DHT22;7666;50.920;4.628;2022-12-07T01:35:17;4.70;99.90
15131;DHT22;7666;50.920;4.628;2022-12-07T01:38:03;4.70;99.90
15131;DHT22;7666;50.920;4.628;2022-12-07T01:40:54;4.90;99.90
15131;DHT22;7666;50.920;4.628;2022-12-07T01:47:04;4.90;99.90
15131;DHT22;7666;50.920;4.628;2022-12-07T01:49:50;4.90;99.90
15131;DHT22;7666;50.920;4.628;2022-12-07T01:52:37;4.90;99.90
15131;DHT22;7666;50.920;4.628;2022-12-07T01:55:25;5.00;99.90
15131;DHT22;7666;50.920;4.628;2022-12-07T01:58:11;5.00;99.90
15131;DHT22;7666;50.920;4.628;2022-12-07T02:00:58;5.00;99.90
15131;DHT22;7666;50.920;4.628;2022-12-07T02:03:45;5.00;99.90
15131;DHT22;7666;50.920;4.628;2022-12-07T02:06:31;5.00;99.90
15131;DHT22;7666;50.920;4.628;2022-12-07T02:09:17;5.00;99.90
15131;DHT22;7666;50.920;4.628;2022-12-07T02:12:03;5.00;99.90
15131;DHT22;7666;50.920;4.628;2022-12-07T02:14:50;5.00;99.90
15131;DHT22;7666;50.920;4.628;2022-12-07T02:20:52;5.00;99.90
15131;DHT22;7666;50.920;4.628;2022-12-07T02:23:51;5.00;99.90
15131;DHT22;7666;50.920;4.628;2022-12-07T02:29:47;4.90;99.90
15131;DHT22;7666;50.920;4.628;2022-12-07T02:41:46;4.90;99.90
15131;DHT22;7666;50.920;4.628;2022-12-07T02:44:34;4.90;99.90
15131;DHT22;7666;50.920;4.628;2022-12-07T02:47:21;4.90;99.90
15131;DHT22;7666;50.920;4.628;2022-12-07T02:50:09;4.90;99.90
15131;DHT22;7666;50.920;4.628;2022-12-07T02:52:56;5.00;99.90
15131;DHT22;7666;50.920;4.628;2022-12-07T02:55:42;5.00;99.90
15131;DHT22;7666;50.920;4.628;2022-12-07T03:05:25;5.00;99.90
15131;DHT22;7666;50.920;4.628;2022-12-07T03:11:42;4.90;99.90
15131;DHT22;7666;50.920;4.628;2022-12-07T03:14:34;4.90;99.90
15131;DHT22;7666;50.920;4.628;2022-12-07T03:17:26;4.90;99.90
15131;DHT22;7666;50.920;4.628;2022-12-07T03:20:16;4.90;99.90
15131;DHT22;7666;50.920;4.628;2022-12-07T03:23:06;4.90;99.90
15131;DHT22;7666;50.920;4.628;2022-12-07T03:25:57;4.90;99.90
15131;DHT22;7666;50.920;4.628;2022-12-07T03:28:49;4.90;99.90
15131;DHT22;7666;50.920;4.628;2022-12-07T03:31:48;5.00;99.90
15131;DHT22;7666;50.920;4.628;2022-12-07T03:34:44;5.00;99.90
15131;DHT22;7666;50.920;4.628;2022-12-07T03:37:40;5.00;99.90
15131;DHT22;7666;50.920;4.628;2022-12-07T03:43:48;5.00;99.90
15131;DHT22;7666;50.920;4.628;2022-12-07T03:50:10;5.10;99.90
15131;DHT22;7666;50.920;4.628;2022-12-07T03:53:08;5.10;99.90
15131;DHT22;7666;50.920;4.628;2022-12-07T03:55:56;5.10;99.90
15131;DHT22;7666;50.920;4.628;2022-12-07T03:58:43;5.10;99.90
15131;DHT22;7666;50.920;4.628;2022-12-07T04:01:29;5.10;99.90
15131;DHT22;7666;50.920;4.628;2022-12-07T04:04:15;5.00;99.90
15131;DHT22;7666;50.920;4.628;2022-12-07T04:07:01;5.00;99.90
15131;DHT22;7666;50.920;4.628;2022-12-07T04:09:48;5.00;99.90
15131;DHT22;7666;50.920;4.628;2022-12-07T04:12:34;4.90;99.90
15131;DHT22;7666;50.920;4.628;2022-12-07T04:15:19;4.90;99.90
15131;DHT22;7666;50.920;4.628;2022-12-07T04:18:06;4.80;99.90
15131;DHT22;7666;50.920;4.628;2022-12-07T04:20:52;4.90;99.90
15131;DHT22;7666;50.920;4.628;2022-12-07T04:23:38;4.70;99.90
15131;DHT22;7666;50.920;4.628;2022-12-07T04:26:24;4.70;99.90
15131;DHT22;7666;50.920;4.628;2022-12-07T04:29:10;4.60;99.90
15131;DHT22;7666;50.920;4.628;2022-12-07T04:31:57;4.60;99.90
15131;DHT22;7666;50.920;4.628;2022-12-07T04:34:42;4.50;99.90
15131;DHT22;7666;50.920;4.628;2022-12-07T04:37:28;4.40;99.90
15131;DHT22;7666;50.920;4.628;2022-12-07T04:40:14;4.40;99.90
15131;DHT22;7666;50.920;4.628;2022-12-07T04:43:00;4.40;99.90
15131;DHT22;7666;50.920;4.628;2022-12-07T04:45:47;4.40;99.90
15131;DHT22;7666;50.920;4.628;2022-12-07T04:48:33;4.30;99.90
15131;DHT22;7666;50.920;4.628;2022-12-07T04:51:25;4.40;99.90
15131;DHT22;7666;50.920;4.628;2022-12-07T04:54:13;4.40;99.90
15131;DHT22;7666;50.920;4.628;2022-12-07T04:56:59;4.40;99.90
15131;DHT22;7666;50.920;4.628;2022-12-07T04:59:45;4.40;99.90
15131;DHT22;7666;50.920;4.628;2022-12-07T05:02:31;4.30;99.90
15131;DHT22;7666;50.920;4.628;2022-12-07T05:05:17;4.30;99.90
15131;DHT22;7666;50.920;4.628;2022-12-07T05:08:03;4.30;99.90
15131;DHT22;7666;50.920;4.628;2022-12-07T05:10:49;4.20;99.90
15131;DHT22;7666;50.920;4.628;2022-12-07T05:13:36;4.20;99.90
15131;DHT22;7666;50.920;4.628;2022-12-07T05:16:22;4.10;99.90
15131;DHT22;7666;50.920;4.628;2022-12-07T05:19:08;4.10;99.90
15131;DHT22;7666;50.920;4.628;2022-12-07T05:21:54;4.10;99.90
15131;DHT22;7666;50.920;4.628;2022-12-07T05:24:40;4.20;99.90
15131;DHT22;7666;50.920;4.628;2022-12-07T05:27:26;4.20;99.90
15131;DHT22;7666;50.920;4.628;2022-12-07T05:30:12;4.30;99.90
15131;DHT22;7666;50.920;4.628;2022-12-07T05:32:58;4.30;99.90
15131;DHT22;7666;50.920;4.628;2022-12-07T05:35:44;4.40;99.90
15131;DHT22;7666;50.920;4.628;2022-12-07T05:38:31;4.40;99.90
15131;DHT22;7666;50.920;4.628;2022-12-07T05:41:18;4.40;99.90
15131;DHT22;7666;50.920;4.628;2022-12-07T05:44:23;4.40;99.90
15131;DHT22;7666;50.920;4.628;2022-12-07T05:47:10;4.40;99.90
15131;DHT22;7666;50.920;4.628;2022-12-07T05:49:56;4.40;99.90
15131;DHT22;7666;50.920;4.628;2022-12-07T05:52:42;4.40;99.90
15131;DHT22;7666;50.920;4.628;2022-12-07T05:55:28;4.40;99.90
15131;DHT22;7666;50.920;4.628;2022-12-07T05:58:14;4.40;99.90
15131;DHT22;7666;50.920;4.628;2022-12-07T06:01:18;4.40;99.90
15131;DHT22;7666;50.920;4.628;2022-12-07T06:04:04;4.40;99.90
15131;DHT22;7666;50.920;4.628;2022-12-07T06:06:50;4.50;99.90
15131;DHT22;7666;50.920;4.628;2022-12-07T06:09:36;4.40;99.90
15131;DHT22;7666;50.920;4.628;2022-12-07T06:12:22;4.40;99.90
15131;DHT22;7666;50.920;4.628;2022-12-07T06:15:20;4.40;99.90
15131;DHT22;7666;50.920;4.628;2022-12-07T06:18:08;4.50;99.90
15131;DHT22;7666;50.920;4.628;2022-12-07T06:20:54;4.50;99.90
15131;DHT22;7666;50.920;4.628;2022-12-07T06:23:40;4.50;99.90
15131;DHT22;7666;50.920;4.628;2022-12-07T06:26:26;4.50;99.90
15131;DHT22;7666;50.920;4.628;2022-12-07T06:29:12;4.60;99.90
15131;DHT22;7666;50.920;4.628;2022-12-07T06:31:59;4.60;99.90
15131;DHT22;7666;50.920;4.628;2022-12-07T06:34:45;4.60;99.90
15131;DHT22;7666;50.920;4.628;2022-12-07T06:37:32;4.60;99.90
15131;DHT22;7666;50.920;4.628;2022-12-07T06:40:18;4.60;99.90
15131;DHT22;7666;50.920;4.628;2022-12-07T06:43:04;4.60;99.90
15131;DHT22;7666;50.920;4.628;2022-12-07T06:45:50;4.60;99.90
15131;DHT22;7666;50.920;4.628;2022-12-07T06:48:36;4.60;99.90
15131;DHT22;7666;50.920;4.628;2022-12-07T06:51:22;4.50;99.90
15131;DHT22;7666;50.920;4.628;2022-12-07T06:54:09;4.50;99.90
15131;DHT22;7666;50.920;4.628;2022-12-07T06:56:55;4.50;99.90
15131;DHT22;7666;50.920;4.628;2022-12-07T06:59:41;4.40;99.90
15131;DHT22;7666;50.920;4.628;2022-12-07T07:02:27;4.40;99.90
15131;DHT22;7666;50.920;4.628;2022-12-07T07:05:13;4.40;99.90
15131;DHT22;7666;50.920;4.628;2022-12-07T07:07:59;4.50;99.90
15131;DHT22;7666;50.920;4.628;2022-12-07T07:10:45;4.50;99.90
15131;DHT22;7666;50.920;4.628;2022-12-07T07:13:31;4.60;99.90
15131;DHT22;7666;50.920;4.628;2022-12-07T07:16:17;4.60;99.90
15131;DHT22;7666;50.920;4.628;2022-12-07T07:19:03;4.70;99.90
15131;DHT22;7666;50.920;4.628;2022-12-07T07:21:49;4.70;99.90
15131;DHT22;7666;50.920;4.628;2022-12-07T07:24:35;4.70;99.90
15131;DHT22;7666;50.920;4.628;2022-12-07T07:27:21;4.70;99.90
15131;DHT22;7666;50.920;4.628;2022-12-07T07:30:08;4.70;99.90
15131;DHT22;7666;50.920;4.628;2022-12-07T07:32:58;4.70;99.90
15131;DHT22;7666;50.920;4.628;2022-12-07T07:35:44;4.70;99.90
15131;DHT22;7666;50.920;4.628;2022-12-07T07:38:30;4.70;99.90
15131;DHT22;7666;50.920;4.628;2022-12-07T07:41:16;4.70;99.90
15131;DHT22;7666;50.920;4.628;2022-12-07T07:44:02;4.70;99.90
15131;DHT22;7666;50.920;4.628;2022-12-07T07:46:48;4.60;99.90
15131;DHT22;7666;50.920;4.628;2022-12-07T07:49:34;4.60;99.90
15131;DHT22;7666;50.920;4.628;2022-12-07T07:52:20;4.60;99.90
15131;DHT22;7666;50.920;4.628;2022-12-07T07:55:06;4.60;99.90
15131;DHT22;7666;50.920;4.628;2022-12-07T07:57:54;4.60;99.90
15131;DHT22;7666;50.920;4.628;2022-12-07T08:00:40;4.60;99.90
15131;DHT22;7666;50.920;4.628;2022-12-07T08:03:26;4.50;99.90
15131;DHT22;7666;50.920;4.628;2022-12-07T08:06:12;4.40;99.90
15131;DHT22;7666;50.920;4.628;2022-12-07T08:08:59;4.40;99.90
15131;DHT22;7666;50.920;4.628;2022-12-07T08:11:45;4.40;99.90
15131;DHT22;7666;50.920;4.628;2022-12-07T08:14:31;4.50;99.90
15131;DHT22;7666;50.920;4.628;2022-12-07T08:17:17;4.50;99.90
15131;DHT22;7666;50.920;4.628;2022-12-07T08:20:03;4.60;99.90
15131;DHT22;7666;50.920;4.628;2022-12-07T08:22:49;4.60;99.90
15131;DHT22;7666;50.920;4.628;2022-12-07T08:25:36;4.60;99.90
15131;DHT22;7666;50.920;4.628;2022-12-07T08:28:22;4.60;99.90
15131;DHT22;7666;50.920;4.628;2022-12-07T08:31:13;5.00;99.90
15131;DHT22;7666;50.920;4.628;2022-12-07T08:33:59;6.00;99.90
15131;DHT22;7666;50.920;4.628;2022-12-07T08:36:45;6.90;99.90
15131;DHT22;7666;50.920;4.628;2022-12-07T08:39:31;7.60;99.90
15131;DHT22;7666;50.920;4.628;2022-12-07T08:42:17;8.20;99.90
15131;DHT22;7666;50.920;4.628;2022-12-07T08:45:07;8.60;99.90
15131;DHT22;7666;50.920;4.628;2022-12-07T08:47:59;8.90;99.90
15131;DHT22;7666;50.920;4.628;2022-12-07T08:50:47;9.00;99.90
15131;DHT22;7666;50.920;4.628;2022-12-07T08:53:34;8.90;99.90
15131;DHT22;7666;50.920;4.628;2022-12-07T08:56:21;8.60;99.90
15131;DHT22;7666;50.920;4.628;2022-12-07T08:59:07;8.10;99.90
15131;DHT22;7666;50.920;4.628;2022-12-07T09:01:54;7.60;99.90
15131;DHT22;7666;50.920;4.628;2022-12-07T09:04:39;7.10;99.90
15131;DHT22;7666;50.920;4.628;2022-12-07T09:07:26;6.80;99.90
15131;DHT22;7666;50.920;4.628;2022-12-07T09:10:12;6.50;99.90
15131;DHT22;7666;50.920;4.628;2022-12-07T09:12:58;6.30;99.90
15131;DHT22;7666;50.920;4.628;2022-12-07T09:15:46;6.10;99.90
15131;DHT22;7666;50.920;4.628;2022-12-07T09:18:32;6.00;99.90
15131;DHT22;7666;50.920;4.628;2022-12-07T09:21:18;5.90;99.90
15131;DHT22;7666;50.920;4.628;2022-12-07T09:24:05;5.80;99.90
15131;DHT22;7666;50.920;4.628;2022-12-07T09:26:51;5.80;99.90
15131;DHT22;7666;50.920;4.628;2022-12-07T09:29:37;5.70;99.90
15131;DHT22;7666;50.920;4.628;2022-12-07T09:32:22;5.80;99.90
15131;DHT22;7666;50.920;4.628;2022-12-07T09:35:08;5.80;99.90
15131;DHT22;7666;50.920;4.628;2022-12-07T09:37:55;5.90;99.90
15131;DHT22;7666;50.920;4.628;2022-12-07T09:40:41;6.00;99.90
15131;DHT22;7666;50.920;4.628;2022-12-07T09:43:29;6.10;99.90
15131;DHT22;7666;50.920;4.628;2022-12-07T09:46:17;6.30;99.90
15131;DHT22;7666;50.920;4.628;2022-12-07T09:49:05;6.40;99.90
15131;DHT22;7666;50.920;4.628;2022-12-07T09:54:50;6.50;99.90
15131;DHT22;7666;50.920;4.628;2022-12-07T09:57:36;6.50;99.90
15131;DHT22;7666;50.920;4.628;2022-12-07T10:00:23;6.50;99.90
15131;DHT22;7666;50.920;4.628;2022-12-07T10:03:11;6.50;99.90
15131;DHT22;7666;50.920;4.628;2022-12-07T10:05:57;6.50;99.90
15131;DHT22;7666;50.920;4.628;2022-12-07T10:08:43;6.50;99.90
15131;DHT22;7666;50.920;4.628;2022-12-07T10:11:29;6.60;99.90
15131;DHT22;7666;50.920;4.628;2022-12-07T10:14:15;6.70;99.90
15131;DHT22;7666;50.920;4.628;2022-12-07T10:17:01;6.70;99.90
15131;DHT22;7666;50.920;4.628;2022-12-07T10:19:47;6.80;99.90
15131;DHT22;7666;50.920;4.628;2022-12-07T10:22:33;6.90;99.90
15131;DHT22;7666;50.920;4.628;2022-12-07T10:25:21;7.00;99.90
15131;DHT22;7666;50.920;4.628;2022-12-07T10:31:01;7.00;99.90
15131;DHT22;7666;50.920;4.628;2022-12-07T10:33:59;7.10;99.90
15131;DHT22;7666;50.920;4.628;2022-12-07T10:36:45;7.00;99.90
15131;DHT22;7666;50.920;4.628;2022-12-07T10:39:44;7.00;99.90
15131;DHT22;7666;50.920;4.628;2022-12-07T10:42:31;7.10;99.90
15131;DHT22;7666;50.920;4.628;2022-12-07T10:45:18;7.20;99.90
15131;DHT22;7666;50.920;4.628;2022-12-07T10:48:09;7.30;99.90
15131;DHT22;7666;50.920;4.628;2022-12-07T10:54:49;7.20;99.90
15131;DHT22;7666;50.920;4.628;2022-12-07T11:00:39;7.00;99.90
15131;DHT22;7666;50.920;4.628;2022-12-07T11:15:36;6.90;99.90
15131;DHT22;7666;50.920;4.628;2022-12-07T11:18:33;6.90;99.90
15131;DHT22;7666;50.920;4.628;2022-12-07T11:21:41;7.00;99.90
15131;DHT22;7666;50.920;4.628;2022-12-07T11:34:08;7.40;99.90
15131;DHT22;7666;50.920;4.628;2022-12-07T11:36:56;7.40;99.90
15131;DHT22;7666;50.920;4.628;2022-12-07T11:42:59;7.40;99.90
15131;DHT22;7666;50.920;4.628;2022-12-07T11:45:54;7.40;99.90
15131;DHT22;7666;50.920;4.628;2022-12-07T11:51:54;7.70;99.90
15131;DHT22;7666;50.920;4.628;2022-12-07T11:54:45;8.00;99.90
15131;DHT22;7666;50.920;4.628;2022-12-07T11:57:41;8.10;99.90
15131;DHT22;7666;50.920;4.628;2022-12-07T12:00:30;8.10;99.90
15131;DHT22;7666;50.920;4.628;2022-12-07T12:03:25;8.00;99.90
15131;DHT22;7666;50.920;4.628;2022-12-07T12:06:15;7.90;99.90
15131;DHT22;7666;50.920;4.628;2022-12-07T12:21:27;7.90;99.90
15131;DHT22;7666;50.920;4.628;2022-12-07T12:24:21;7.90;99.90
15131;DHT22;7666;50.920;4.628;2022-12-07T12:27:15;7.70;99.90
15131;DHT22;7666;50.920;4.628;2022-12-07T12:30:06;7.70;99.90
15131;DHT22;7666;50.920;4.628;2022-12-07T12:33:28;7.60;99.90
15131;DHT22;7666;50.920;4.628;2022-12-07T12:41:55;7.60;99.90
15131;DHT22;7666;50.920;4.628;2022-12-07T12:44:41;7.60;99.90
15131;DHT22;7666;50.920;4.628;2022-12-07T12:48:00;7.60;99.90
15131;DHT22;7666;50.920;4.628;2022-12-07T12:50:46;7.80;99.90
15131;DHT22;7666;50.920;4.628;2022-12-07T12:53:32;8.10;99.90
15131;DHT22;7666;50.920;4.628;2022-12-07T12:56:34;8.30;99.90
15131;DHT22;7666;50.920;4.628;2022-12-07T12:59:39;8.50;99.90
15131;DHT22;7666;50.920;4.628;2022-12-07T13:02:30;8.70;99.90
15131;DHT22;7666;50.920;4.628;2022-12-07T13:05:25;8.80;99.90
15131;DHT22;7666;50.920;4.628;2022-12-07T13:08:21;8.80;99.90
15131;DHT22;7666;50.920;4.628;2022-12-07T13:11:42;8.90;99.90
15131;DHT22;7666;50.920;4.628;2022-12-07T13:14:55;9.00;99.90
15131;DHT22;7666;50.920;4.628;2022-12-07T13:24:00;9.00;99.90
15131;DHT22;7666;50.920;4.628;2022-12-07T13:26:46;8.90;99.90
15131;DHT22;7666;50.920;4.628;2022-12-07T13:29:36;8.70;99.90
15131;DHT22;7666;50.920;4.628;2022-12-07T13:32:29;8.60;99.90
15131;DHT22;7666;50.920;4.628;2022-12-07T13:35:33;8.40;99.90
15131;DHT22;7666;50.920;4.628;2022-12-07T13:38:50;8.30;99.90
15131;DHT22;7666;50.920;4.628;2022-12-07T13:41:37;8.20;99.90
15131;DHT22;7666;50.920;4.628;2022-12-07T13:44:28;8.00;99.90
15131;DHT22;7666;50.920;4.628;2022-12-07T13:47:54;7.90;99.90
15131;DHT22;7666;50.920;4.628;2022-12-07T13:50:42;7.80;99.90
15131;DHT22;7666;50.920;4.628;2022-12-07T13:53:28;7.80;99.90
15131;DHT22;7666;50.920;4.628;2022-12-07T13:56:16;7.80;99.90
15131;DHT22;7666;50.920;4.628;2022-12-07T13:59:03;7.80;99.90
15131;DHT22;7666;50.920;4.628;2022-12-07T14:01:52;7.70;99.90
15131;DHT22;7666;50.920;4.628;2022-12-07T14:04:38;7.70;99.90
15131;DHT22;7666;50.920;4.628;2022-12-07T14:07:27;7.70;99.90
15131;DHT22;7666;50.920;4.628;2022-12-07T14:10:40;7.70;99.90
15131;DHT22;7666;50.920;4.628;2022-12-07T14:19:06;7.50;99.90
15131;DHT22;7666;50.920;4.628;2022-12-07T14:25:21;7.40;99.90
15131;DHT22;7666;50.920;4.628;2022-12-07T14:28:28;7.30;99.90
15131;DHT22;7666;50.920;4.628;2022-12-07T14:31:22;7.20;99.90
15131;DHT22;7666;50.920;4.628;2022-12-07T14:34:12;7.00;99.90
15131;DHT22;7666;50.920;4.628;2022-12-07T14:36:58;6.90;99.90
15131;DHT22;7666;50.920;4.628;2022-12-07T14:39:44;6.80;99.90
15131;DHT22;7666;50.920;4.628;2022-12-07T14:42:31;6.80;99.90
15131;DHT22;7666;50.920;4.628;2022-12-07T14:45:20;6.80;99.90
15131;DHT22;7666;50.920;4.628;2022-12-07T14:48:10;6.70;99.90
15131;DHT22;7666;50.920;4.628;2022-12-07T14:50:56;6.70;99.90
15131;DHT22;7666;50.920;4.628;2022-12-07T14:53:46;6.70;99.90
15131;DHT22;7666;50.920;4.628;2022-12-07T14:56:33;6.70;99.90
15131;DHT22;7666;50.920;4.628;2022-12-07T14:59:19;6.60;99.90
15131;DHT22;7666;50.920;4.628;2022-12-07T15:02:06;6.60;99.90
15131;DHT22;7666;50.920;4.628;2022-12-07T15:04:52;6.60;99.90
15131;DHT22;7666;50.920;4.628;2022-12-07T15:07:38;6.50;99.90
15131;DHT22;7666;50.920;4.628;2022-12-07T15:10:30;6.40;99.90
15131;DHT22;7666;50.920;4.628;2022-12-07T15:13:17;6.40;99.90
15131;DHT22;7666;50.920;4.628;2022-12-07T15:16:40;6.30;99.90
15131;DHT22;7666;50.920;4.628;2022-12-07T15:19:27;6.30;99.90
15131;DHT22;7666;50.920;4.628;2022-12-07T15:22:12;6.20;99.90
15131;DHT22;7666;50.920;4.628;2022-12-07T15:24:58;6.10;99.90
15131;DHT22;7666;50.920;4.628;2022-12-07T15:27:44;6.00;99.90
15131;DHT22;7666;50.920;4.628;2022-12-07T15:30:30;6.00;99.90
15131;DHT22;7666;50.920;4.628;2022-12-07T15:33:16;6.00;99.90
15131;DHT22;7666;50.920;4.628;2022-12-07T15:36:02;6.00;99.90
15131;DHT22;7666;50.920;4.628;2022-12-07T15:38:49;6.00;99.90
15131;DHT22;7666;50.920;4.628;2022-12-07T15:41:35;6.00;99.90
15131;DHT22;7666;50.920;4.628;2022-12-07T15:44:21;6.00;99.90
15131;DHT22;7666;50.920;4.628;2022-12-07T15:47:26;6.00;99.90
15131;DHT22;7666;50.920;4.628;2022-12-07T15:50:14;6.00;99.90
15131;DHT22;7666;50.920;4.628;2022-12-07T15:53:00;6.00;99.90
15131;DHT22;7666;50.920;4.628;2022-12-07T15:55:46;6.00;99.90
15131;DHT22;7666;50.920;4.628;2022-12-07T15:58:33;6.00;99.90
15131;DHT22;7666;50.920;4.628;2022-12-07T16:01:19;6.00;99.90
15131;DHT22;7666;50.920;4.628;2022-12-07T16:04:05;6.00;99.90
15131;DHT22;7666;50.920;4.628;2022-12-07T16:06:51;5.90;99.90
15131;DHT22;7666;50.920;4.628;2022-12-07T16:09:38;6.00;99.90
15131;DHT22;7666;50.920;4.628;2022-12-07T16:12:23;6.00;99.90
15131;DHT22;7666;50.920;4.628;2022-12-07T16:15:10;5.90;99.90
15131;DHT22;7666;50.920;4.628;2022-12-07T16:17:56;6.00;99.90
15131;DHT22;7666;50.920;4.628;2022-12-07T16:20:42;6.00;99.90
15131;DHT22;7666;50.920;4.628;2022-12-07T16:23:29;6.00;99.90
15131;DHT22;7666;50.920;4.628;2022-12-07T16:26:17;6.00;99.90
15131;DHT22;7666;50.920;4.628;2022-12-07T16:29:03;6.00;99.90
15131;DHT22;7666;50.920;4.628;2022-12-07T16:31:51;6.00;99.90
15131;DHT22;7666;50.920;4.628;2022-12-07T16:34:37;6.00;99.90
15131;DHT22;7666;50.920;4.628;2022-12-07T16:37:24;6.00;99.90
15131;DHT22;7666;50.920;4.628;2022-12-07T16:40:11;6.00;99.90
15131;DHT22;7666;50.920;4.628;2022-12-07T16:42:57;6.00;99.90
15131;DHT22;7666;50.920;4.628;2022-12-07T16:45:43;6.00;99.90
15131;DHT22;7666;50.920;4.628;2022-12-07T16:48:30;5.90;99.90
15131;DHT22;7666;50.920;4.628;2022-12-07T16:51:16;5.90;99.90
15131;DHT22;7666;50.920;4.628;2022-12-07T16:54:02;5.90;99.90
15131;DHT22;7666;50.920;4.628;2022-12-07T16:56:48;5.90;99.90
15131;DHT22;7666;50.920;4.628;2022-12-07T16:59:34;5.90;99.90
15131;DHT22;7666;50.920;4.628;2022-12-07T17:02:20;5.90;99.90
15131;DHT22;7666;50.920;4.628;2022-12-07T17:05:07;5.90;99.90
15131;DHT22;7666;50.920;4.628;2022-12-07T17:07:54;5.90;99.90
15131;DHT22;7666;50.920;4.628;2022-12-07T17:10:42;5.90;99.90
15131;DHT22;7666;50.920;4.628;2022-12-07T17:13:29;5.90;99.90
15131;DHT22;7666;50.920;4.628;2022-12-07T17:16:34;5.90;99.90
15131;DHT22;7666;50.920;4.628;2022-12-07T17:19:20;5.90;99.90
15131;DHT22;7666;50.920;4.628;2022-12-07T17:22:06;5.90;99.90
15131;DHT22;7666;50.920;4.628;2022-12-07T17:24:52;5.80;99.90
15131;DHT22;7666;50.920;4.628;2022-12-07T17:27:38;5.80;99.90
15131;DHT22;7666;50.920;4.628;2022-12-07T17:30:24;5.80;99.90
15131;DHT22;7666;50.920;4.628;2022-12-07T17:33:10;5.90;99.90
15131;DHT22;7666;50.920;4.628;2022-12-07T17:35:56;5.80;99.90
15131;DHT22;7666;50.920;4.628;2022-12-07T17:38:42;5.90;99.90
15131;DHT22;7666;50.920;4.628;2022-12-07T17:41:29;5.80;99.90
15131;DHT22;7666;50.920;4.628;2022-12-07T17:44:33;5.80;99.90
15131;DHT22;7666;50.920;4.628;2022-12-07T17:47:19;5.90;99.90
15131;DHT22;7666;50.920;4.628;2022-12-07T17:50:07;5.90;99.90
15131;DHT22;7666;50.920;4.628;2022-12-07T17:52:53;5.90;99.90
15131;DHT22;7666;50.920;4.628;2022-12-07T17:55:57;5.80;99.90
15131;DHT22;7666;50.920;4.628;2022-12-07T17:58:43;5.80;99.90
15131;DHT22;7666;50.920;4.628;2022-12-07T18:01:30;5.80;99.90
15131;DHT22;7666;50.920;4.628;2022-12-07T18:04:16;5.80;99.90
15131;DHT22;7666;50.920;4.628;2022-12-07T18:07:02;5.80;99.90
15131;DHT22;7666;50.920;4.628;2022-12-07T18:09:50;5.80;99.90
15131;DHT22;7666;50.920;4.628;2022-12-07T18:12:37;5.70;99.90
15131;DHT22;7666;50.920;4.628;2022-12-07T18:15:23;5.70;99.90
15131;DHT22;7666;50.920;4.628;2022-12-07T18:18:09;5.70;99.90
15131;DHT22;7666;50.920;4.628;2022-12-07T18:20:55;5.70;99.90
15131;DHT22;7666;50.920;4.628;2022-12-07T18:23:42;5.70;99.90
15131;DHT22;7666;50.920;4.628;2022-12-07T18:26:31;5.60;99.90
15131;DHT22;7666;50.920;4.628;2022-12-07T18:29:17;5.60;99.90
15131;DHT22;7666;50.920;4.628;2022-12-07T18:32:03;5.60;99.90
15131;DHT22;7666;50.920;4.628;2022-12-07T18:34:50;5.60;99.90
15131;DHT22;7666;50.920;4.628;2022-12-07T18:37:36;5.60;99.90
15131;DHT22;7666;50.920;4.628;2022-12-07T18:40:22;5.60;99.90
15131;DHT22;7666;50.920;4.628;2022-12-07T18:43:09;5.60;99.90
15131;DHT22;7666;50.920;4.628;2022-12-07T18:45:55;5.60;99.90
15131;DHT22;7666;50.920;4.628;2022-12-07T18:48:42;5.60;99.90
15131;DHT22;7666;50.920;4.628;2022-12-07T18:51:28;5.60;99.90
15131;DHT22;7666;50.920;4.628;2022-12-07T18:54:14;5.60;99.90
15131;DHT22;7666;50.920;4.628;2022-12-07T18:57:00;5.50;99.90
15131;DHT22;7666;50.920;4.628;2022-12-07T18:59:46;5.50;99.90
15131;DHT22;7666;50.920;4.628;2022-12-07T19:02:32;5.50;99.90
15131;DHT22;7666;50.920;4.628;2022-12-07T19:05:19;5.50;99.90
15131;DHT22;7666;50.920;4.628;2022-12-07T19:08:05;5.40;99.90
15131;DHT22;7666;50.920;4.628;2022-12-07T19:10:52;5.40;99.90
15131;DHT22;7666;50.920;4.628;2022-12-07T19:13:38;5.40;99.90
15131;DHT22;7666;50.920;4.628;2022-12-07T19:16:24;5.40;99.90
15131;DHT22;7666;50.920;4.628;2022-12-07T19:19:10;5.30;99.90
15131;DHT22;7666;50.920;4.628;2022-12-07T19:21:56;5.30;99.90
15131;DHT22;7666;50.920;4.628;2022-12-07T19:24:43;5.30;99.90
15131;DHT22;7666;50.920;4.628;2022-12-07T19:27:31;5.30;99.90
15131;DHT22;7666;50.920;4.628;2022-12-07T19:30:18;5.30;99.90
15131;DHT22;7666;50.920;4.628;2022-12-07T19:33:04;5.40;99.90
15131;DHT22;7666;50.920;4.628;2022-12-07T19:35:50;5.40;99.90
15131;DHT22;7666;50.920;4.628;2022-12-07T19:38:36;5.40;99.90
15131;DHT22;7666;50.920;4.628;2022-12-07T19:41:22;5.40;99.90
15131;DHT22;7666;50.920;4.628;2022-12-07T19:44:22;5.40;99.90
15131;DHT22;7666;50.920;4.628;2022-12-07T19:47:10;5.40;99.90
15131;DHT22;7666;50.920;4.628;2022-12-07T19:49:56;5.40;99.90
15131;DHT22;7666;50.920;4.628;2022-12-07T19:52:42;5.40;99.90
15131;DHT22;7666;50.920;4.628;2022-12-07T19:55:28;5.40;99.90
15131;DHT22;7666;50.920;4.628;2022-12-07T19:58:14;5.40;99.90
15131;DHT22;7666;50.920;4.628;2022-12-07T20:01:04;5.40;99.90
15131;DHT22;7666;50.920;4.628;2022-12-07T20:03:50;5.40;99.90
15131;DHT22;7666;50.920;4.628;2022-12-07T20:06:36;5.40;99.90
15131;DHT22;7666;50.920;4.628;2022-12-07T20:09:23;5.40;99.90